Time;durP1;ratioP1;P1;durP2;ratioP2;P2;SDS_P1;SDS_P2;PMS_P1;PMS_P2;Temp;Humidity;BMP_temperature;BMP_pressure;BME280_temperature;BME280_humidity;BME280_pressure;Samples;Min_cycle;Max_cycle;Signal;HPM_P1;HPM_P2
2020/12/08 00:00:26;;;;;;;17.13;11.50;;;6.90;1.00;;;;;;5071876;28;20451;-62
2020/12/08 00:02:53;;;;;;;15.27;12.27;;;6.90;1.00;;;;;;5071078;28;20447;-61
2020/12/08 00:05:20;;;;;;;14.60;12.20;;;6.90;1.00;;;;;;5077484;28;20209;-62
2020/12/08 00:07:46;;;;;;;15.23;12.43;;;6.90;1.00;;;;;;5063906;28;20218;-61
2020/12/08 00:10:11;;;;;;;17.52;12.20;;;7.00;1.00;;;;;;5066241;28;20461;-60
2020/12/08 00:12:37;;;;;;;16.67;11.83;;;7.00;1.00;;;;;;5063007;28;20656;-61
2020/12/08 00:15:05;;;;;;;14.67;11.93;;;7.00;1.00;;;;;;5068398;28;20269;-61
2020/12/08 00:17:32;;;;;;;13.82;11.02;;;7.00;1.00;;;;;;5070266;28;20183;-59
2020/12/08 00:19:58;;;;;;;15.68;12.10;;;7.00;1.00;;;;;;5065369;28;20182;-61
2020/12/08 00:22:24;;;;;;;13.23;11.23;;;7.00;1.00;;;;;;5070189;28;20655;-61
2020/12/08 00:24:49;;;;;;;14.80;11.27;;;6.90;1.00;;;;;;5068598;28;20452;-61
2020/12/08 00:27:15;;;;;;;13.67;11.00;;;6.90;1.00;;;;;;5059720;28;20553;-61
2020/12/08 00:29:41;;;;;;;12.53;11.00;;;6.90;1.00;;;;;;5067806;28;20198;-60
2020/12/08 00:32:11;;;;;;;14.43;10.93;;;6.90;1.00;;;;;;5068719;28;20273;-60
2020/12/08 00:34:36;;;;;;;14.13;11.67;;;7.00;1.00;;;;;;5068980;28;20442;-61
2020/12/08 00:37:04;;;;;;;14.00;11.50;;;7.00;1.00;;;;;;5069258;28;20992;-60
2020/12/08 00:39:30;;;;;;;14.13;11.30;;;7.00;1.00;;;;;;5056238;28;20685;-61
2020/12/08 00:41:55;;;;;;;13.40;11.73;;;7.00;1.00;;;;;;5070267;28;20473;-61
2020/12/08 00:44:21;;;;;;;14.33;11.70;;;7.00;1.00;;;;;;5062702;28;20183;-61
2020/12/08 00:46:50;;;;;;;13.23;10.30;;;7.00;1.00;;;;;;5059528;28;20184;-62
2020/12/08 00:49:17;;;;;;;15.07;11.05;;;7.10;1.00;;;;;;5067951;28;20233;-61
2020/12/08 00:51:42;;;;;;;14.20;10.98;;;7.00;1.00;;;;;;5059700;28;20187;-61
2020/12/08 00:54:08;;;;;;;12.47;11.00;;;7.00;1.00;;;;;;5064685;28;20185;-61
2020/12/08 00:56:34;;;;;;;14.47;11.37;;;7.00;1.00;;;;;;5069333;28;20672;-61
2020/12/08 00:59:00;;;;;;;13.37;11.20;;;7.00;1.00;;;;;;5056393;28;20192;-62
2020/12/08 01:01:25;;;;;;;15.00;11.27;;;7.00;1.00;;;;;;5059254;28;20186;-59
2020/12/08 01:03:51;;;;;;;18.97;13.97;;;7.00;1.00;;;;;;5069794;28;20431;-61
2020/12/08 01:06:17;;;;;;;15.70;12.37;;;7.00;1.00;;;;;;5065964;28;20200;-61
2020/12/08 01:08:42;;;;;;;20.60;14.00;;;7.10;1.00;;;;;;5061400;28;20301;-61
2020/12/08 01:11:08;;;;;;;19.10;14.70;;;7.20;1.00;;;;;;5061705;28;20238;-61
2020/12/08 01:13:37;;;;;;;20.33;15.07;;;7.20;1.00;;;;;;5068471;28;20288;-61
2020/12/08 01:16:03;;;;;;;22.35;16.15;;;7.20;1.00;;;;;;5066157;28;20190;-61
2020/12/08 01:18:29;;;;;;;22.03;16.47;;;7.30;1.00;;;;;;5065062;28;20206;-61
2020/12/08 01:20:55;;;;;;;22.10;16.00;;;7.40;1.00;;;;;;5064205;28;20431;-62
2020/12/08 01:23:22;;;;;;;22.20;16.40;;;7.40;1.00;;;;;;5061766;28;20466;-61
2020/12/08 01:25:49;;;;;;;22.40;16.10;;;7.50;1.00;;;;;;5059214;28;20213;-61
2020/12/08 01:28:14;;;;;;;20.97;16.60;;;7.50;1.00;;;;;;5068495;28;20551;-61
2020/12/08 01:30:40;;;;;;;24.67;17.37;;;7.40;1.00;;;;;;5069484;28;20421;-61
2020/12/08 01:33:05;;;;;;;22.30;16.10;;;7.40;1.00;;;;;;5057422;28;20260;-62
2020/12/08 01:35:31;;;;;;;23.67;16.67;;;7.40;1.00;;;;;;5069300;28;20178;-61
2020/12/08 01:37:57;;;;;;;23.97;17.37;;;7.30;1.00;;;;;;5059867;28;20190;-62
2020/12/08 01:40:22;;;;;;;22.17;15.73;;;7.30;1.00;;;;;;5068686;28;20229;-61
2020/12/08 01:42:48;;;;;;;15.80;13.37;;;7.30;1.00;;;;;;5055670;28;20198;-61
2020/12/08 01:45:13;;;;;;;18.03;13.50;;;7.30;1.00;;;;;;5060661;28;20194;-61
2020/12/08 01:47:39;;;;;;;19.67;14.20;;;7.20;1.00;;;;;;5059676;28;20692;-56
2020/12/08 01:50:05;;;;;;;20.20;14.43;;;7.20;1.00;;;;;;5062494;28;20279;-61
2020/12/08 01:52:31;;;;;;;21.30;15.77;;;7.10;1.00;;;;;;5065714;28;20196;-61
2020/12/08 01:55:02;;;;;;;22.55;15.45;;;7.00;1.00;;;;;;5063577;28;20174;-61
2020/12/08 01:57:27;;;;;;;21.55;15.98;;;7.00;1.00;;;;;;5066643;28;20189;-61
2020/12/08 01:59:53;;;;;;;22.10;15.23;;;7.00;1.00;;;;;;5056027;28;20181;-61
2020/12/08 02:02:18;;;;;;;18.13;14.30;;;7.00;1.00;;;;;;5064314;28;20549;-61
2020/12/08 02:04:44;;;;;;;23.20;15.57;;;7.10;1.00;;;;;;5068710;28;20207;-61
2020/12/08 02:07:10;;;;;;;23.27;15.53;;;7.10;1.00;;;;;;5053709;28;20225;-61
2020/12/08 02:09:36;;;;;;;23.10;16.20;;;7.10;1.00;;;;;;5064361;28;20183;-60
2020/12/08 02:12:03;;;;;;;21.97;15.47;;;7.20;1.00;;;;;;5067355;28;20645;-60
2020/12/08 02:14:29;;;;;;;21.00;14.40;;;7.30;1.00;;;;;;5067233;28;20781;-60
2020/12/08 02:16:55;;;;;;;20.67;16.30;;;7.40;1.00;;;;;;5067150;28;20437;-60
2020/12/08 02:19:20;;;;;;;23.87;17.40;;;7.40;1.00;;;;;;5061009;28;20259;-60
2020/12/08 02:21:46;;;;;;;21.30;15.93;;;7.50;1.00;;;;;;5052645;28;20186;-60
2020/12/08 02:24:16;;;;;;;21.60;16.57;;;7.60;1.00;;;;;;5055965;28;20185;-60
2020/12/08 02:26:43;;;;;;;19.85;15.05;;;7.60;1.00;;;;;;5065396;28;20208;-61
2020/12/08 02:29:09;;;;;;;25.57;17.43;;;7.60;1.00;;;;;;5067395;28;20205;-61
2020/12/08 02:31:35;;;;;;;23.47;17.20;;;7.60;1.00;;;;;;5066773;28;20421;-62
2020/12/08 02:34:00;;;;;;;22.03;15.57;;;7.70;1.00;;;;;;5056484;28;20446;-62
2020/12/08 02:36:26;;;;;;;21.37;15.80;;;7.70;1.00;;;;;;5051760;28;20744;-61
2020/12/08 02:38:52;;;;;;;21.87;16.53;;;7.80;1.00;;;;;;5064193;28;20215;-61
2020/12/08 02:41:17;;;;;;;21.47;15.43;;;7.80;1.00;;;;;;5059016;28;20739;-61
2020/12/08 02:43:43;;;;;;;21.20;16.47;;;7.80;1.00;;;;;;5068069;28;20190;-61
2020/12/08 02:46:11;;;;;;;21.40;16.17;;;7.80;1.00;;;;;;5068805;28;20180;-61
2020/12/08 02:48:37;;;;;;;22.20;16.53;;;7.80;1.00;;;;;;5062579;28;20204;-61
2020/12/08 02:51:02;;;;;;;22.33;16.23;;;7.80;1.00;;;;;;5068084;28;21033;-61
2020/12/08 02:53:28;;;;;;;21.03;15.87;;;7.80;1.00;;;;;;5068495;28;20180;-60
2020/12/08 02:55:54;;;;;;;21.43;15.00;;;7.80;1.00;;;;;;5066232;28;20188;-61
2020/12/08 02:58:19;;;;;;;21.07;16.07;;;7.80;1.00;;;;;;5067374;28;20192;-60
2020/12/08 03:00:45;;;;;;;20.67;15.93;;;7.90;1.00;;;;;;5067906;28;20189;-60
2020/12/08 03:03:11;;;;;;;22.07;15.40;;;7.90;1.00;;;;;;5068080;28;20190;-61
2020/12/08 03:05:36;;;;;;;21.03;16.43;;;7.80;1.00;;;;;;5057191;28;20231;-60
2020/12/08 03:08:02;;;;;;;20.70;15.83;;;7.80;1.00;;;;;;5054281;28;20964;-60
2020/12/08 03:10:27;;;;;;;21.20;15.67;;;7.80;1.00;;;;;;5055637;28;20799;-61
2020/12/08 03:12:53;;;;;;;21.33;16.07;;;7.80;1.00;;;;;;5069210;28;20180;-61
2020/12/08 03:15:19;;;;;;;19.10;15.10;;;7.70;1.00;;;;;;5058904;28;20182;-61
2020/12/08 03:17:44;;;;;;;18.67;15.20;;;7.70;1.00;;;;;;5062811;28;20199;-61
2020/12/08 03:20:10;;;;;;;21.27;15.80;;;7.70;1.00;;;;;;5065672;28;20187;-61
2020/12/08 03:22:36;;;;;;;22.60;15.40;;;7.70;1.00;;;;;;5067696;28;20192;-62
2020/12/08 03:25:03;;;;;;;19.53;14.93;;;7.70;1.00;;;;;;5066393;28;20214;-61
2020/12/08 03:27:29;;;;;;;20.80;15.57;;;7.70;1.00;;;;;;5064017;28;20856;-61
2020/12/08 03:29:55;;;;;;;21.47;15.13;;;7.70;1.00;;;;;;5070452;28;20434;-61
2020/12/08 03:32:20;;;;;;;21.63;15.57;;;7.70;1.00;;;;;;5071526;28;20245;-61
2020/12/08 03:34:46;;;;;;;19.80;15.50;;;7.80;1.00;;;;;;5067677;28;20185;-61
2020/12/08 03:37:11;;;;;;;22.00;16.07;;;7.80;1.00;;;;;;5070253;28;20239;-62
2020/12/08 03:39:37;;;;;;;19.50;15.00;;;7.80;1.00;;;;;;5064997;28;20188;-61
2020/12/08 03:42:04;;;;;;;21.40;14.80;;;7.70;1.00;;;;;;5070178;28;20326;-61
2020/12/08 03:44:31;;;;;;;20.90;14.93;;;7.70;1.00;;;;;;5056433;28;20633;-62
2020/12/08 03:46:58;;;;;;;18.63;14.30;;;7.80;1.00;;;;;;5071323;28;20418;-61
2020/12/08 03:49:26;;;;;;;17.80;13.60;;;7.70;1.00;;;;;;5068285;28;20464;-61
2020/12/08 03:51:53;;;;;;;18.27;13.87;;;7.70;1.00;;;;;;5057386;28;20475;-62
2020/12/08 03:54:19;;;;;;;18.03;14.10;;;7.80;1.00;;;;;;5068922;28;20805;-62
2020/12/08 03:56:45;;;;;;;18.00;14.50;;;7.80;1.00;;;;;;5071281;28;20498;-61
2020/12/08 03:59:17;;;;;;;18.23;14.37;;;7.80;1.00;;;;;;5063004;28;20695;-61
2020/12/08 04:01:44;;;;;;;17.93;14.10;;;7.80;1.00;;;;;;5070516;28;20560;-61
2020/12/08 04:04:09;;;;;;;20.80;14.47;;;7.80;1.00;;;;;;5070586;28;20975;-62
2020/12/08 04:06:35;;;;;;;17.43;13.53;;;7.80;1.00;;;;;;5064602;28;20427;-61
2020/12/08 04:09:00;;;;;;;18.70;13.80;;;7.90;1.00;;;;;;5055713;28;20558;-61
2020/12/08 04:11:26;;;;;;;18.83;14.23;;;7.90;1.00;;;;;;5064557;28;20184;-59
2020/12/08 04:13:51;;;;;;;17.93;14.60;;;7.90;1.00;;;;;;5062965;28;20212;-61
2020/12/08 04:16:17;;;;;;;18.10;14.17;;;8.00;1.00;;;;;;5057072;28;20259;-61
2020/12/08 04:18:43;;;;;;;19.17;14.40;;;8.00;1.00;;;;;;5067217;28;20257;-62
2020/12/08 04:21:08;;;;;;;17.40;14.93;;;8.00;1.00;;;;;;5065791;28;20662;-61
2020/12/08 04:23:35;;;;;;;18.03;13.20;;;8.00;1.00;;;;;;5061400;28;20230;-61
2020/12/08 04:26:00;;;;;;;17.40;14.70;;;8.00;1.00;;;;;;5053312;28;20283;-61
2020/12/08 04:28:26;;;;;;;19.07;14.80;;;8.00;1.00;;;;;;5054135;28;20531;-61
2020/12/08 04:30:52;;;;;;;18.20;14.67;;;8.00;1.00;;;;;;5070502;28;20380;-60
2020/12/08 04:33:17;;;;;;;20.00;14.40;;;8.00;1.00;;;;;;5060971;28;20480;-60
2020/12/08 04:35:43;;;;;;;18.43;14.60;;;8.00;1.00;;;;;;5051151;28;20701;-61
2020/12/08 04:38:09;;;;;;;17.47;14.20;;;8.00;1.00;;;;;;5057029;28;20193;-61
2020/12/08 04:40:36;;;;;;;16.80;13.30;;;8.00;1.00;;;;;;5051304;28;20940;-61
2020/12/08 04:43:04;;;;;;;19.60;14.63;;;8.00;1.00;;;;;;5062586;28;20441;-61
2020/12/08 04:45:31;;;;;;;16.90;12.93;;;8.00;1.00;;;;;;5067101;28;20438;-61
2020/12/08 04:48:05;;;;;;;16.40;14.10;;;8.00;1.00;;;;;;5070412;28;20459;-61
2020/12/08 04:50:31;;;;;;;16.27;12.73;;;8.00;1.00;;;;;;5054766;28;20470;-61
2020/12/08 04:52:57;;;;;;;19.03;14.30;;;8.00;1.00;;;;;;5051950;28;20411;-61
2020/12/08 04:55:23;;;;;;;20.50;14.80;;;8.00;1.00;;;;;;5064918;28;20507;-61
2020/12/08 04:57:49;;;;;;;20.43;14.23;;;8.00;1.00;;;;;;5069938;28;20261;-61
2020/12/08 05:00:15;;;;;;;19.90;14.93;;;7.90;1.00;;;;;;5058906;28;20192;-61
2020/12/08 05:02:47;;;;;;;17.63;14.20;;;8.00;1.00;;;;;;5060057;28;20438;-60
2020/12/08 05:05:14;;;;;;;16.80;14.07;;;8.00;1.00;;;;;;5065131;28;20202;-61
2020/12/08 05:07:40;;;;;;;18.40;13.83;;;7.90;1.00;;;;;;5067389;28;20558;-61
2020/12/08 05:10:06;;;;;;;17.77;14.07;;;7.90;1.00;;;;;;5059080;28;20457;-61
2020/12/08 05:12:31;;;;;;;19.73;14.90;;;7.90;1.00;;;;;;5062569;28;20532;-61
2020/12/08 05:14:57;;;;;;;18.90;14.63;;;7.80;1.00;;;;;;5068797;28;20195;-60
2020/12/08 05:17:24;;;;;;;18.10;14.97;;;7.90;1.00;;;;;;5057446;28;20271;-61
2020/12/08 05:20:03;;;;;;;19.63;14.30;;;7.90;1.00;;;;;;5070804;28;20206;-61
2020/12/08 05:22:29;;;;;;;19.10;14.23;;;7.90;1.00;;;;;;5066060;28;21018;-61
2020/12/08 05:24:55;;;;;;;18.83;14.13;;;7.90;1.00;;;;;;5046885;28;20436;-61
2020/12/08 05:27:20;;;;;;;20.00;14.67;;;7.80;1.00;;;;;;5043127;28;20212;-60
2020/12/08 05:29:46;;;;;;;16.83;13.37;;;7.80;1.00;;;;;;5043244;28;20184;-61
2020/12/08 05:32:38;;;;;;;19.90;13.80;;;7.70;1.00;;;;;;5043539;28;20286;-61
2020/12/08 05:35:09;;;;;;;18.50;13.43;;;7.70;1.00;;;;;;5044355;28;20200;-60
2020/12/08 05:37:44;;;;;;;17.37;14.20;;;7.60;1.00;;;;;;5044553;28;20469;-61
2020/12/08 05:40:13;;;;;;;18.30;14.00;;;7.60;1.00;;;;;;5043911;28;21033;-61
2020/12/08 05:42:41;;;;;;;19.55;15.32;;;7.50;1.00;;;;;;5043061;28;20418;-61
2020/12/08 05:45:08;;;;;;;20.75;14.60;;;7.40;1.00;;;;;;5057456;28;20236;-61
2020/12/08 05:47:41;;;;;;;18.13;13.73;;;7.40;1.00;;;;;;5068045;28;20293;-60
2020/12/08 05:50:07;;;;;;;19.75;15.05;;;7.30;1.00;;;;;;5067850;28;20214;-60
2020/12/08 05:52:34;;;;;;;21.10;14.80;;;7.20;1.00;;;;;;5069982;28;20786;-60
2020/12/08 05:55:10;;;;;;;21.52;15.77;;;7.20;1.00;;;;;;5069711;28;20534;-60
2020/12/08 05:57:37;;;;;;;17.00;13.65;;;7.10;1.00;;;;;;5069868;28;20240;-60
2020/12/08 06:00:07;;;;;;;19.25;15.35;;;7.00;1.00;;;;;;5068880;28;20188;-60
2020/12/08 06:02:33;;;;;;;19.50;13.93;;;6.90;1.00;;;;;;5066799;28;20976;-60
2020/12/08 06:04:59;;;;;;;21.70;14.63;;;6.80;1.00;;;;;;5066966;28;20178;-61
2020/12/08 06:07:30;;;;;;;22.60;14.67;;;6.80;1.00;;;;;;5070317;28;20198;-60
2020/12/08 06:10:10;;;;;;;20.48;14.20;;;6.70;1.00;;;;;;5069437;28;20179;-61
2020/12/08 06:12:37;;;;;;;17.77;13.48;;;6.60;1.00;;;;;;5077806;28;20249;-61
2020/12/08 06:15:24;;;;;;;19.65;13.40;;;6.60;1.00;;;;;;5068936;28;20647;-61
2020/12/08 06:17:51;;;;;;;20.98;14.77;;;6.50;1.00;;;;;;5069352;28;20206;-61
2020/12/08 06:20:17;;;;;;;21.33;14.20;;;6.50;1.00;;;;;;5062100;28;20188;-61
2020/12/08 06:23:14;;;;;;;20.75;15.10;;;6.40;1.00;;;;;;5068827;28;20214;-61
2020/12/08 06:25:40;;;;;;;22.55;14.85;;;6.30;1.00;;;;;;5050308;28;20194;-61
2020/12/08 06:28:05;;;;;;;19.40;15.00;;;6.30;1.00;;;;;;5069110;28;20214;-61
2020/12/08 06:30:31;;;;;;;20.83;14.83;;;6.30;1.00;;;;;;5069023;28;20231;-60
2020/12/08 06:32:56;;;;;;;20.07;15.80;;;6.20;1.00;;;;;;5067908;28;20239;-60
2020/12/08 06:35:22;;;;;;;20.60;14.87;;;6.20;1.00;;;;;;5068793;28;20297;-61
2020/12/08 06:37:55;;;;;;;19.47;14.37;;;6.10;1.00;;;;;;5070079;28;20507;-61
2020/12/08 06:40:23;;;;;;;19.33;14.35;;;6.10;1.00;;;;;;5066856;28;20726;-60
2020/12/08 06:42:50;;;;;;;20.58;14.68;;;6.10;1.00;;;;;;5068979;28;20177;-60
2020/12/08 06:45:21;;;;;;;21.90;13.65;;;6.10;1.00;;;;;;5064009;28;20256;-60
2020/12/08 06:47:47;;;;;;;19.67;13.50;;;6.00;1.00;;;;;;5067086;28;20254;-61
2020/12/08 06:50:31;;;;;;;19.02;13.48;;;6.00;1.00;;;;;;5072230;28;20188;-61
2020/12/08 06:53:02;;;;;;;20.58;14.38;;;6.00;1.00;;;;;;5071480;28;20177;-61
2020/12/08 06:55:30;;;;;;;20.02;14.30;;;6.00;1.00;;;;;;5065775;28;20195;-61
2020/12/08 06:58:05;;;;;;;20.25;14.02;;;6.00;1.00;;;;;;5074871;28;20284;-61
2020/12/08 07:00:31;;;;;;;19.95;13.55;;;6.00;1.00;;;;;;5073556;28;20181;-61
2020/12/08 07:02:57;;;;;;;18.52;13.95;;;6.00;1.00;;;;;;5072968;28;20697;-61
2020/12/08 07:05:27;;;;;;;18.20;13.95;;;6.00;1.00;;;;;;5074223;28;20190;-61
2020/12/08 07:07:53;;;;;;;21.90;14.48;;;6.00;1.00;;;;;;5070802;28;20197;-61
2020/12/08 07:10:20;;;;;;;20.05;13.55;;;6.00;1.00;;;;;;5071780;28;20268;-61
2020/12/08 07:12:51;;;;;;;20.65;13.80;;;6.00;1.00;;;;;;5079047;28;20181;-61
2020/12/08 07:15:26;;;;;;;19.63;14.10;;;6.00;1.00;;;;;;5069808;28;20174;-61
2020/12/08 07:18:03;;;;;;;19.88;14.15;;;6.00;1.00;;;;;;5072303;28;20181;-60
2020/12/08 07:20:29;;;;;;;20.15;13.70;;;6.00;1.00;;;;;;5071002;28;20212;-60
2020/12/08 07:22:54;;;;;;;17.07;13.10;;;6.00;1.00;;;;;;5057103;28;20202;-60
2020/12/08 07:25:22;;;;;;;19.53;13.53;;;6.00;1.00;;;;;;5070539;28;20216;-60
2020/12/08 07:27:50;;;;;;;19.27;13.63;;;6.00;1.00;;;;;;5071151;28;20609;-60
2020/12/08 07:30:18;;;;;;;19.27;14.05;;;6.00;1.00;;;;;;5071591;28;20176;-60
2020/12/08 07:32:44;;;;;;;19.00;13.55;;;6.00;1.00;;;;;;5071783;28;20620;-61
2020/12/08 07:35:21;;;;;;;17.20;13.47;;;6.00;1.00;;;;;;5070069;28;20169;-59
2020/12/08 07:37:48;;;;;;;17.85;13.52;;;6.00;1.00;;;;;;5071516;28;20284;-60
2020/12/08 07:40:14;;;;;;;19.23;14.32;;;6.00;1.00;;;;;;5071614;28;20614;-60
2020/12/08 07:42:47;;;;;;;21.92;13.65;;;6.00;1.00;;;;;;5070976;28;20601;-60
2020/12/08 07:45:13;;;;;;;17.40;13.52;;;6.10;1.00;;;;;;5070289;28;20185;-60
2020/12/08 07:47:39;;;;;;;19.15;13.63;;;6.10;1.00;;;;;;5066889;28;20197;-60
2020/12/08 07:50:05;;;;;;;18.43;13.47;;;6.10;1.00;;;;;;5069006;28;20181;-63
2020/12/08 07:52:31;;;;;;;17.67;13.63;;;6.20;1.00;;;;;;5074684;28;20265;-62
2020/12/08 07:54:56;;;;;;;19.53;14.03;;;6.20;1.00;;;;;;5069637;28;20257;-62
2020/12/08 07:57:22;;;;;;;17.10;13.33;;;6.30;1.00;;;;;;5070736;28;20184;-63
2020/12/08 07:59:48;;;;;;;16.50;13.53;;;6.40;1.00;;;;;;5069483;28;20192;-62
2020/12/08 08:02:13;;;;;;;19.73;14.57;;;6.50;1.00;;;;;;5070892;28;20186;-62
2020/12/08 08:04:39;;;;;;;16.60;12.73;;;6.70;1.00;;;;;;5070325;28;20675;-62
2020/12/08 08:07:05;;;;;;;17.90;13.27;;;6.80;1.00;;;;;;5070779;28;20186;-62
2020/12/08 08:09:30;;;;;;;19.67;12.40;;;7.10;1.00;;;;;;5070292;28;20186;-62
2020/12/08 08:11:56;;;;;;;14.47;11.77;;;7.30;1.00;;;;;;5072963;28;20193;-62
2020/12/08 08:14:21;;;;;;;15.97;12.60;;;7.60;1.00;;;;;;5073312;28;20187;-62
2020/12/08 08:16:48;;;;;;;15.13;12.33;;;7.90;1.00;;;;;;5071639;28;20191;-63
2020/12/08 08:19:14;;;;;;;13.87;11.40;;;8.10;99.90;;;;;;5069308;28;20228;-62
2020/12/08 08:21:44;;;;;;;15.30;12.30;;;8.40;90.00;;;;;;5076578;28;20900;-62
2020/12/08 08:24:09;;;;;;;14.30;11.83;;;8.80;99.90;;;;;;5071757;28;20427;-62
2020/12/08 08:26:39;;;;;;;14.00;12.13;;;9.00;99.90;;;;;;5070591;28;20431;-63
2020/12/08 08:29:04;;;;;;;15.63;12.23;;;9.20;99.90;;;;;;5074088;28;20208;-62
2020/12/08 08:31:30;;;;;;;13.03;11.63;;;9.40;1.00;;;;;;5071229;28;20415;-61
2020/12/08 08:33:55;;;;;;;17.23;11.30;;;9.70;17.30;;;;;;5069583;28;20181;-60
2020/12/08 08:36:21;;;;;;;13.70;11.50;;;9.80;1.00;;;;;;5065238;28;20235;-60
2020/12/08 08:38:47;;;;;;;13.70;12.00;;;9.90;1.00;;;;;;5068444;28;20192;-62
2020/12/08 08:41:12;;;;;;;13.70;12.00;;;10.10;99.90;;;;;;5069004;28;20934;-62
2020/12/08 08:43:39;;;;;;;12.87;11.50;;;10.40;1.00;;;;;;5069723;28;20231;-62
2020/12/08 08:46:05;;;;;;;13.57;11.53;;;10.30;1.00;;;;;;5070028;28;20183;-64
2020/12/08 08:48:31;;;;;;;12.50;11.20;;;10.40;1.00;;;;;;5080190;28;20693;-60
2020/12/08 08:50:56;;;;;;;12.17;10.97;;;10.80;99.90;;;;;;5069120;28;20250;-58
2020/12/08 08:53:22;;;;;;;12.47;11.10;;;11.20;99.90;;;;;;5070472;28;20419;-60
2020/12/08 08:55:48;;;;;;;13.50;12.10;;;11.20;1.00;;;;;;5068698;28;20184;-60
2020/12/08 08:58:15;;;;;;;14.03;11.13;;;11.40;1.00;;;;;;5068557;28;20268;-60
2020/12/08 09:00:41;;;;;;;11.70;10.47;;;11.40;1.00;;;;;;5069317;28;20181;-61
2020/12/08 09:03:08;;;;;;;12.90;11.53;;;11.50;1.00;;;;;;5068903;28;20886;-60
2020/12/08 09:05:34;;;;;;;13.30;11.77;;;11.60;1.00;;;;;;5068913;28;20418;-61
2020/12/08 09:08:00;;;;;;;12.23;11.00;;;11.70;1.00;;;;;;5068646;28;20454;-64
2020/12/08 09:10:26;;;;;;;12.90;10.70;;;11.70;1.00;;;;;;5069303;28;20490;-61
2020/12/08 09:12:52;;;;;;;12.23;10.97;;;11.60;1.00;;;;;;5069219;28;20909;-63
2020/12/08 09:15:18;;;;;;;12.40;11.20;;;11.80;1.00;;;;;;5067668;28;20419;-59
2020/12/08 09:17:44;;;;;;;13.10;10.60;;;11.80;1.00;;;;;;5068274;28;20177;-62
2020/12/08 09:20:09;;;;;;;12.80;11.20;;;11.80;1.00;;;;;;5074420;28;20427;-60
2020/12/08 09:22:35;;;;;;;12.73;9.83;;;11.60;1.00;;;;;;5069114;28;20234;-60
2020/12/08 09:25:01;;;;;;;10.80;9.50;;;11.60;1.00;;;;;;5069781;28;20193;-62
2020/12/08 09:27:29;;;;;;;11.23;10.03;;;11.70;1.00;;;;;;5069900;28;20181;-65
2020/12/08 09:29:55;;;;;;;10.83;9.73;;;11.60;1.00;;;;;;5068363;28;20177;-60
2020/12/08 09:32:21;;;;;;;11.17;9.97;;;11.60;1.00;;;;;;5068255;28;20916;-62
2020/12/08 09:34:46;;;;;;;10.87;9.43;;;11.70;1.00;;;;;;5069144;28;20205;-63
2020/12/08 09:37:12;;;;;;;11.43;9.57;;;11.60;1.00;;;;;;5068995;28;20173;-64
2020/12/08 09:39:38;;;;;;;10.03;9.13;;;11.80;1.00;;;;;;5068789;28;20177;-64
2020/12/08 09:42:03;;;;;;;10.90;9.80;;;11.90;1.00;;;;;;5067733;28;20335;-60
2020/12/08 09:44:29;;;;;;;9.90;8.87;;;11.90;99.90;;;;;;5069271;28;20174;-62
2020/12/08 09:46:55;;;;;;;12.23;9.70;;;11.90;99.90;;;;;;5056179;28;20217;-59
2020/12/08 09:49:21;;;;;;;10.50;9.53;;;11.80;99.90;;;;;;5068265;28;20244;-60
2020/12/08 09:51:47;;;;;;;10.17;9.20;;;11.80;99.90;;;;;;5068439;28;20423;-60
2020/12/08 09:54:12;;;;;;;10.63;9.70;;;11.80;99.90;;;;;;5067431;28;20408;-62
2020/12/08 09:56:38;;;;;;;10.93;9.83;;;12.10;99.90;;;;;;5067169;28;20189;-60
2020/12/08 09:59:04;;;;;;;12.40;9.80;;;12.10;99.90;;;;;;5069011;28;20195;-60
2020/12/08 10:01:31;;;;;;;10.23;9.17;;;12.40;99.90;;;;;;5062990;28;20185;-60
2020/12/08 10:03:58;;;;;;;10.37;9.30;;;12.20;99.90;;;;;;5054621;28;20261;-61
2020/12/08 10:06:24;;;;;;;10.63;9.63;;;12.20;99.90;;;;;;5067141;28;20818;-60
2020/12/08 10:08:54;;;;;;;9.77;8.80;;;12.30;99.90;;;;;;5068927;28;20463;-60
2020/12/08 10:11:20;;;;;;;10.57;9.43;;;12.60;99.90;;;;;;5067200;28;20213;-60
2020/12/08 10:13:45;;;;;;;10.37;9.37;;;12.60;99.90;;;;;;5068793;28;20415;-60
2020/12/08 10:16:11;;;;;;;10.10;9.10;;;12.50;99.90;;;;;;5068671;28;20415;-60
2020/12/08 10:18:38;;;;;;;10.23;9.13;;;12.70;99.90;;;;;;5067955;28;20189;-59
2020/12/08 10:21:03;;;;;;;11.47;9.60;;;12.70;99.90;;;;;;5069569;28;20241;-59
2020/12/08 10:23:29;;;;;;;10.10;9.10;;;12.30;99.90;;;;;;5065653;28;20462;-58
2020/12/08 10:25:55;;;;;;;10.20;9.10;;;12.30;99.90;;;;;;5072724;28;20189;-58
2020/12/08 10:28:21;;;;;;;9.87;8.87;;;12.00;99.90;;;;;;5074350;28;20231;-59
2020/12/08 10:30:48;;;;;;;10.17;9.13;;;12.00;99.90;;;;;;5070749;28;20999;-60
2020/12/08 10:33:14;;;;;;;10.83;9.73;;;12.10;99.90;;;;;;5073393;28;21303;-60
2020/12/08 10:35:40;;;;;;;13.40;10.20;;;11.90;99.90;;;;;;5073472;28;20414;-59
2020/12/08 10:38:05;;;;;;;9.90;8.57;;;12.10;99.90;;;;;;5060707;28;20939;-61
2020/12/08 10:40:31;;;;;;;10.03;9.03;;;12.60;99.90;;;;;;5072252;28;20714;-60
2020/12/08 10:42:57;;;;;;;10.03;9.00;;;12.70;99.90;;;;;;5071410;28;20188;-60
2020/12/08 10:45:22;;;;;;;10.57;9.53;;;12.80;99.90;;;;;;5070864;28;20187;-60
2020/12/08 10:47:48;;;;;;;9.83;8.93;;;13.10;99.90;;;;;;5070396;28;20205;-60
2020/12/08 10:50:13;;;;;;;10.70;9.60;;;13.20;99.90;;;;;;5066243;28;20183;-60
2020/12/08 10:52:39;;;;;;;9.93;9.00;;;13.10;99.90;;;;;;5064514;28;20276;-61
2020/12/08 10:55:05;;;;;;;9.37;8.57;;;12.70;99.90;;;;;;5071205;28;20186;-60
2020/12/08 10:57:30;;;;;;;10.70;9.60;;;12.90;99.90;;;;;;5071591;28;20215;-60
2020/12/08 10:59:57;;;;;;;10.53;9.53;;;13.00;99.90;;;;;;5073185;28;20629;-61
2020/12/08 11:02:23;;;;;;;10.50;9.40;;;13.20;99.90;;;;;;5068227;28;20278;-61
2020/12/08 11:04:48;;;;;;;10.47;9.47;;;13.20;99.90;;;;;;5070236;28;20515;-52
2020/12/08 11:07:14;;;;;;;11.57;10.37;;;13.20;99.90;;;;;;5064272;28;20484;-55
2020/12/08 11:09:39;;;;;;;10.53;9.37;;;13.50;99.90;;;;;;5063673;28;20262;-55
2020/12/08 11:12:05;;;;;;;10.80;9.70;;;13.50;99.90;;;;;;5070553;28;20278;-51
2020/12/08 11:14:31;;;;;;;9.70;8.70;;;13.70;99.90;;;;;;5067817;28;20192;-51
2020/12/08 11:16:58;;;;;;;11.03;9.83;;;13.40;99.90;;;;;;5075615;28;20188;-53
2020/12/08 11:19:24;;;;;;;11.00;9.90;;;13.30;99.90;;;;;;5067139;28;20688;-52
2020/12/08 11:21:49;;;;;;;11.10;10.10;;;13.20;99.90;;;;;;5061953;28;20433;-53
2020/12/08 11:24:15;;;;;;;11.13;10.13;;;13.10;99.90;;;;;;5058886;28;20191;-53
2020/12/08 11:26:44;;;;;;;10.50;9.50;;;12.70;99.90;;;;;;5051198;28;20181;-51
2020/12/08 11:29:10;;;;;;;12.70;10.20;;;12.70;99.90;;;;;;5061508;28;20204;-48
2020/12/08 11:31:35;;;;;;;10.60;9.50;;;12.70;99.90;;;;;;5070950;28;20420;-52
2020/12/08 11:34:01;;;;;;;11.17;9.87;;;12.90;99.90;;;;;;5069821;28;20186;-50
2020/12/08 11:36:27;;;;;;;12.70;11.33;;;13.20;99.90;;;;;;5069996;28;20259;-51
2020/12/08 11:38:52;;;;;;;11.20;10.10;;;12.50;99.90;;;;;;5069366;28;20185;-50
2020/12/08 11:41:18;;;;;;;10.93;9.93;;;12.20;99.90;;;;;;5069922;28;20610;-52
2020/12/08 11:43:44;;;;;;;10.80;9.70;;;12.00;99.90;;;;;;5071476;28;20172;-51
2020/12/08 11:46:13;;;;;;;10.93;9.77;;;12.00;99.90;;;;;;5070085;28;20201;-51
2020/12/08 11:48:40;;;;;;;11.33;10.13;;;12.30;99.90;;;;;;5070821;28;20467;-51
2020/12/08 11:51:06;;;;;;;10.77;9.67;;;12.40;99.90;;;;;;5070496;28;20438;-50
2020/12/08 11:53:31;;;;;;;11.40;9.53;;;12.50;99.90;;;;;;5069068;28;20428;-49
2020/12/08 11:55:57;;;;;;;9.97;8.97;;;12.50;99.90;;;;;;5070844;28;20288;-52
2020/12/08 11:58:23;;;;;;;12.70;9.80;;;12.50;99.90;;;;;;5070956;28;20189;-52
2020/12/08 12:00:48;;;;;;;10.97;9.87;;;12.40;99.90;;;;;;5069392;28;20185;-51
2020/12/08 12:03:14;;;;;;;11.40;9.77;;;12.50;99.90;;;;;;5070259;28;20268;-51
2020/12/08 12:05:40;;;;;;;9.63;8.70;;;12.50;99.90;;;;;;5087816;28;20229;-53
2020/12/08 12:08:06;;;;;;;10.00;9.10;;;12.80;99.90;;;;;;5075062;28;20205;-54
2020/12/08 12:10:32;;;;;;;11.10;10.00;;;12.80;99.90;;;;;;5050757;28;20640;-50
2020/12/08 12:12:57;;;;;;;10.97;9.70;;;12.70;99.90;;;;;;5077095;28;20421;-56
2020/12/08 12:15:23;;;;;;;10.60;9.60;;;12.70;99.90;;;;;;5070307;28;20261;-55
2020/12/08 12:17:48;;;;;;;11.53;9.80;;;12.50;99.90;;;;;;5078880;28;20269;-48
2020/12/08 12:20:14;;;;;;;10.80;9.70;;;12.50;99.90;;;;;;5071121;28;20646;-52
2020/12/08 12:22:40;;;;;;;11.70;10.50;;;12.70;99.90;;;;;;5069262;28;20271;-54
2020/12/08 12:25:06;;;;;;;10.63;9.50;;;12.80;99.90;;;;;;5071873;28;20566;-53
2020/12/08 12:27:32;;;;;;;11.47;10.27;;;12.60;99.90;;;;;;5071101;28;20210;-52
2020/12/08 12:29:58;;;;;;;10.80;9.70;;;12.30;99.90;;;;;;5070041;28;20456;-58
2020/12/08 12:32:24;;;;;;;10.50;9.37;;;12.60;99.90;;;;;;5072712;28;20175;-60
2020/12/08 12:34:50;;;;;;;11.60;10.40;;;12.60;99.90;;;;;;5069457;28;20437;-61
2020/12/08 12:37:16;;;;;;;9.53;8.63;;;12.40;99.90;;;;;;5070548;28;20174;-62
2020/12/08 12:39:41;;;;;;;10.50;9.47;;;12.60;99.90;;;;;;5063589;28;20487;-59